createdAt,value
2019-03-27T00:02:02.072Z,5.60
2019-03-27T00:04:30.460Z,5.60
2019-03-27T00:06:58.856Z,5.60
2019-03-27T00:09:27.245Z,5.60
2019-03-27T00:11:55.725Z,5.60
2019-03-27T00:14:24.129Z,5.60
2019-03-27T00:16:52.520Z,5.60
2019-03-27T00:19:20.920Z,5.50
2019-03-27T00:21:49.313Z,5.60
2019-03-27T00:24:17.700Z,5.50
2019-03-27T00:26:46.168Z,5.60
2019-03-27T00:29:14.562Z,5.50
2019-03-27T00:31:42.954Z,5.50
2019-03-27T00:34:11.344Z,5.50
2019-03-27T00:36:39.751Z,5.50
2019-03-27T00:39:08.143Z,5.60
2019-03-27T00:41:36.529Z,5.60
2019-03-27T00:44:04.916Z,5.60
2019-03-27T00:46:33.300Z,5.60
2019-03-27T00:49:01.721Z,5.50
2019-03-27T00:51:30.116Z,5.50
2019-03-27T00:53:58.509Z,5.40
2019-03-27T00:56:26.908Z,5.40
2019-03-27T00:58:55.293Z,5.40
2019-03-27T01:01:23.937Z,5.30
2019-03-27T01:03:52.328Z,5.30
2019-03-27T01:06:20.717Z,5.30
2019-03-27T01:08:49.110Z,5.20
2019-03-27T01:11:17.520Z,5.20
2019-03-27T01:13:45.903Z,5.10
2019-03-27T01:16:14.300Z,5.00
2019-03-27T01:18:42.689Z,4.90
2019-03-27T01:21:11.077Z,4.90
2019-03-27T01:23:39.470Z,4.80
2019-03-27T01:26:07.865Z,4.80
2019-03-27T01:28:36.261Z,4.90
2019-03-27T01:31:05.228Z,4.80
2019-03-27T01:33:33.633Z,4.80
2019-03-27T01:36:02.289Z,4.80
2019-03-27T01:38:30.677Z,4.80
2019-03-27T01:40:59.085Z,4.80
2019-03-27T01:43:27.497Z,4.70
2019-03-27T01:45:55.890Z,4.60
2019-03-27T01:48:24.280Z,4.60
2019-03-27T01:50:52.744Z,4.50
2019-03-27T01:53:21.133Z,4.40
2019-03-27T01:55:49.524Z,4.30
2019-03-27T01:58:17.929Z,4.20
2019-03-27T02:00:46.317Z,4.10
2019-03-27T02:03:14.946Z,4.10
2019-03-27T02:05:43.339Z,4.10
2019-03-27T02:08:11.728Z,4.20
2019-03-27T02:10:40.222Z,4.30
2019-03-27T02:13:27.946Z,4.40
2019-03-27T02:16:06.898Z,4.50
2019-03-27T02:18:26.784Z,4.50
2019-03-27T02:20:55.167Z,4.60
2019-03-27T02:23:23.591Z,4.70
2019-03-27T02:25:51.982Z,4.80
2019-03-27T02:28:20.373Z,4.80
2019-03-27T02:30:48.768Z,4.90
2019-03-27T02:33:17.178Z,4.90
2019-03-27T02:35:45.575Z,4.90
2019-03-27T02:38:14.032Z,5.00
2019-03-27T02:40:42.422Z,4.90
2019-03-27T02:43:10.822Z,4.90
2019-03-27T02:45:39.223Z,5.00
2019-03-27T02:48:07.609Z,5.00
2019-03-27T02:50:36.001Z,5.00
2019-03-27T02:53:04.461Z,5.00
2019-03-27T02:55:32.857Z,5.00
2019-03-27T02:58:01.282Z,5.10
2019-03-27T03:00:29.739Z,5.10
2019-03-27T03:02:58.184Z,5.20
2019-03-27T03:05:26.562Z,5.20
2019-03-27T03:07:54.949Z,5.30
2019-03-27T03:10:23.414Z,5.30
2019-03-27T03:12:51.808Z,5.40
2019-03-27T03:15:23.078Z,5.40
2019-03-27T03:17:51.527Z,5.60
2019-03-27T03:20:19.920Z,5.60
2019-03-27T03:22:48.306Z,5.80
2019-03-27T03:25:16.760Z,5.80
2019-03-27T03:27:45.161Z,5.90
2019-03-27T03:30:14.607Z,6.00
2019-03-27T03:32:43.670Z,6.00
2019-03-27T03:35:32.926Z,6.00
2019-03-27T03:38:01.326Z,6.00
2019-03-27T03:40:29.709Z,6.00
2019-03-27T03:42:58.100Z,6.00
2019-03-27T03:45:26.519Z,6.00
2019-03-27T03:47:54.908Z,6.00
2019-03-27T03:50:29.321Z,6.00
2019-03-27T03:52:58.552Z,6.00
2019-03-27T03:55:27.082Z,6.00
2019-03-27T03:57:56.427Z,6.00
2019-03-27T04:00:26.425Z,5.90
2019-03-27T04:02:55.948Z,5.90
2019-03-27T04:05:24.429Z,5.80
2019-03-27T04:07:52.828Z,5.80
2019-03-27T04:10:21.220Z,5.60
2019-03-27T04:12:49.617Z,5.50
2019-03-27T04:15:18.033Z,5.50
2019-03-27T04:17:46.425Z,5.40
2019-03-27T04:20:14.810Z,5.30
2019-03-27T04:22:43.209Z,5.20
2019-03-27T04:25:11.592Z,5.20
2019-03-27T04:27:39.999Z,5.10
2019-03-27T04:30:09.221Z,5.00
2019-03-27T04:32:37.632Z,4.80
2019-03-27T04:35:07.053Z,4.70
2019-03-27T04:37:35.433Z,4.60
2019-03-27T04:40:06.336Z,4.50
2019-03-27T04:42:34.722Z,4.50
2019-03-27T04:45:03.118Z,4.50
2019-03-27T04:47:32.707Z,4.40
2019-03-27T04:50:01.758Z,4.40
2019-03-27T04:52:30.137Z,4.40
2019-03-27T04:54:58.540Z,4.40
2019-03-27T04:57:26.932Z,4.30
2019-03-27T04:59:55.319Z,4.40
2019-03-27T05:02:23.731Z,4.40
2019-03-27T05:04:53.680Z,4.50
2019-03-27T05:07:22.329Z,4.50
2019-03-27T05:09:50.720Z,4.60
2019-03-27T05:12:19.134Z,4.70
2019-03-27T05:14:47.521Z,4.80
2019-03-27T05:17:15.908Z,4.90
2019-03-27T05:19:44.317Z,4.90
2019-03-27T05:22:12.696Z,5.00
2019-03-27T05:24:41.093Z,5.10
2019-03-27T05:27:09.491Z,5.10
2019-03-27T05:29:37.911Z,5.20
2019-03-27T05:32:06.309Z,5.20
2019-03-27T05:34:34.700Z,5.30
2019-03-27T05:37:03.119Z,5.30
2019-03-27T05:39:31.496Z,5.40
2019-03-27T05:41:59.901Z,5.40
2019-03-27T05:44:28.290Z,5.50
2019-03-27T05:46:56.684Z,5.50
2019-03-27T05:49:25.084Z,5.60
2019-03-27T05:51:53.504Z,5.60
2019-03-27T05:54:21.876Z,5.70
2019-03-27T05:56:50.268Z,5.90
2019-03-27T05:59:18.657Z,6.00
2019-03-27T06:01:47.045Z,6.10
2019-03-27T06:04:15.458Z,6.20
2019-03-27T06:06:44.014Z,6.20
2019-03-27T06:09:12.495Z,6.30
2019-03-27T06:11:40.877Z,6.30
2019-03-27T06:14:09.333Z,6.40
2019-03-27T06:16:37.746Z,6.60
2019-03-27T06:19:11.280Z,6.80
2019-03-27T06:21:39.665Z,7.00
2019-03-27T06:24:08.069Z,7.10
2019-03-27T06:26:36.526Z,7.30
2019-03-27T06:29:04.934Z,7.50
2019-03-27T06:31:33.325Z,7.70
2019-03-27T06:34:01.708Z,7.80
2019-03-27T06:36:30.128Z,7.90
2019-03-27T06:38:58.522Z,7.90
2019-03-27T06:41:26.920Z,7.80
2019-03-27T06:43:55.380Z,7.80
2019-03-27T06:46:23.765Z,7.70
2019-03-27T06:48:52.156Z,7.60
2019-03-27T06:51:20.557Z,7.60
2019-03-27T06:53:48.970Z,7.70
2019-03-27T06:56:17.420Z,7.90
2019-03-27T06:58:54.365Z,8.00
2019-03-27T07:01:15.941Z,8.10
2019-03-27T07:03:44.355Z,8.20
2019-03-27T07:06:12.740Z,8.30
2019-03-27T07:08:41.215Z,8.50
2019-03-27T07:11:09.688Z,8.70
2019-03-27T07:13:38.089Z,8.80
2019-03-27T07:16:06.480Z,8.90
2019-03-27T07:18:40.453Z,8.90
2019-03-27T07:21:05.070Z,8.90
2019-03-27T07:23:33.461Z,8.90
2019-03-27T07:26:01.861Z,8.90
2019-03-27T07:28:30.254Z,8.90
2019-03-27T07:30:58.637Z,8.90
2019-03-27T07:33:27.026Z,8.90
2019-03-27T07:35:55.432Z,8.90
2019-03-27T07:38:23.823Z,8.90
2019-03-27T07:40:52.222Z,8.90
2019-03-27T07:43:20.620Z,9.00
2019-03-27T07:45:48.998Z,9.00
2019-03-27T07:48:17.396Z,9.00
2019-03-27T07:50:45.808Z,9.10
2019-03-27T07:53:14.204Z,9.30
2019-03-27T07:55:42.588Z,9.70
2019-03-27T07:58:10.968Z,9.90
2019-03-27T08:00:39.368Z,10.00
2019-03-27T08:03:07.773Z,10.30
2019-03-27T08:05:36.165Z,10.50
2019-03-27T08:08:04.577Z,10.60
2019-03-27T08:10:33.052Z,10.50
2019-03-27T08:13:01.440Z,10.30
2019-03-27T08:15:29.840Z,10.10
2019-03-27T08:17:58.238Z,9.90
2019-03-27T08:20:26.624Z,9.80
2019-03-27T08:22:55.093Z,9.90
2019-03-27T08:25:23.503Z,10.10
2019-03-27T08:27:51.963Z,10.30
2019-03-27T08:30:21.196Z,10.50
2019-03-27T08:32:49.594Z,10.40
2019-03-27T08:35:17.992Z,10.10
2019-03-27T08:37:46.388Z,9.80
2019-03-27T08:40:15.649Z,9.60
2019-03-27T08:42:45.002Z,9.50
2019-03-27T08:45:14.231Z,9.40
2019-03-27T08:47:42.627Z,9.60
2019-03-27T08:50:12.743Z,9.90
2019-03-27T08:52:41.228Z,10.20
2019-03-27T08:55:13.796Z,10.70
2019-03-27T08:57:41.573Z,11.20
2019-03-27T09:00:13.019Z,11.70
2019-03-27T09:02:41.415Z,12.10
2019-03-27T09:05:11.245Z,12.30
2019-03-27T09:07:39.707Z,12.40
2019-03-27T09:10:09.841Z,12.70
2019-03-27T09:12:38.236Z,13.10
2019-03-27T09:15:09.564Z,13.30
2019-03-27T09:17:38.209Z,13.30
2019-03-27T09:20:07.832Z,13.20
2019-03-27T09:22:36.314Z,13.20
2019-03-27T09:25:06.031Z,13.40
2019-03-27T09:27:34.565Z,13.50
2019-03-27T09:30:04.504Z,13.70
2019-03-27T09:32:33.143Z,13.90
2019-03-27T09:35:01.534Z,14.20
2019-03-27T09:37:29.957Z,14.30
2019-03-27T09:39:58.350Z,14.50
2019-03-27T09:42:26.760Z,14.70
2019-03-27T09:44:55.148Z,14.70
2019-03-27T09:47:23.558Z,14.90
2019-03-27T09:49:51.945Z,15.20
2019-03-27T09:52:20.347Z,15.10
2019-03-27T09:54:48.812Z,14.80
2019-03-27T09:57:17.218Z,14.60
2019-03-27T09:59:45.613Z,14.30
2019-03-27T10:02:14.111Z,14.10
2019-03-27T10:04:42.499Z,14.10
2019-03-27T10:07:10.893Z,14.00
2019-03-27T10:09:39.391Z,13.90
2019-03-27T10:12:07.779Z,13.80
2019-03-27T10:14:36.249Z,13.70
2019-03-27T10:17:04.644Z,13.80
2019-03-27T10:19:33.048Z,14.10
2019-03-27T10:22:01.437Z,14.10
2019-03-27T10:24:29.900Z,14.00
2019-03-27T10:26:58.374Z,13.70
2019-03-27T10:29:26.762Z,13.50
2019-03-27T10:31:55.226Z,13.60
2019-03-27T10:34:23.621Z,13.80
2019-03-27T10:36:52.013Z,14.00
2019-03-27T10:39:20.481Z,14.30
2019-03-27T10:41:48.882Z,14.80
2019-03-27T10:44:17.657Z,15.20
2019-03-27T10:46:46.736Z,15.50
2019-03-27T10:49:15.132Z,15.90
2019-03-27T10:51:43.521Z,16.20
2019-03-27T10:54:11.982Z,16.60
2019-03-27T10:56:40.454Z,16.90
2019-03-27T10:59:08.935Z,17.50
2019-03-27T11:01:37.332Z,17.90
2019-03-27T11:04:05.724Z,17.70
2019-03-27T11:06:34.124Z,17.70
2019-03-27T11:09:02.602Z,17.50
2019-03-27T11:11:31.086Z,17.50
2019-03-27T11:13:59.481Z,17.40
2019-03-27T11:16:27.882Z,17.40
2019-03-27T11:18:56.293Z,17.50
2019-03-27T11:21:24.677Z,17.50
2019-03-27T11:23:53.137Z,17.30
2019-03-27T11:26:21.551Z,17.00
2019-03-27T11:28:49.949Z,16.80
2019-03-27T11:31:18.355Z,16.80
2019-03-27T11:33:46.759Z,16.90
2019-03-27T11:36:15.220Z,16.90
2019-03-27T11:38:43.601Z,16.70
2019-03-27T11:41:12.435Z,16.50
2019-03-27T11:43:53.839Z,17.00
2019-03-27T11:46:11.503Z,17.50
2019-03-27T11:48:39.962Z,17.60
2019-03-27T11:51:08.410Z,17.80
2019-03-27T11:53:36.804Z,18.20
2019-03-27T11:56:05.269Z,18.30
2019-03-27T11:58:33.677Z,18.40
2019-03-27T12:01:02.075Z,18.30
2019-03-27T12:03:30.464Z,17.80
2019-03-27T12:05:58.923Z,17.20
2019-03-27T12:08:28.256Z,16.40
2019-03-27T12:10:56.661Z,15.60
2019-03-27T12:13:25.050Z,15.10
2019-03-27T12:15:53.565Z,14.70
2019-03-27T12:18:22.148Z,14.50
2019-03-27T12:20:58.758Z,14.40
2019-03-27T12:23:20.649Z,14.30
2019-03-27T12:25:49.050Z,14.20
2019-03-27T12:28:17.509Z,14.10
2019-03-27T12:30:45.911Z,14.10
2019-03-27T12:33:14.304Z,14.10
2019-03-27T12:35:42.700Z,14.20
2019-03-27T12:38:11.101Z,14.40
2019-03-27T12:40:39.553Z,14.80
2019-03-27T12:43:08.021Z,15.20
2019-03-27T12:45:36.413Z,15.50
2019-03-27T12:48:06.928Z,15.60
2019-03-27T12:50:35.389Z,15.60
2019-03-27T12:53:04.748Z,15.70
2019-03-27T12:55:33.214Z,15.70
2019-03-27T12:58:01.602Z,16.00
2019-03-27T13:00:30.075Z,16.00
2019-03-27T13:02:58.504Z,16.40
2019-03-27T13:05:26.887Z,17.40
2019-03-27T13:07:55.368Z,18.30
2019-03-27T13:10:23.757Z,19.00
2019-03-27T13:12:52.216Z,19.70
2019-03-27T13:15:20.685Z,20.10
2019-03-27T13:17:49.105Z,20.30
2019-03-27T13:20:19.135Z,19.90
2019-03-27T13:22:47.524Z,19.40
2019-03-27T13:25:16.852Z,19.20
2019-03-27T13:27:47.500Z,18.80
2019-03-27T13:30:17.090Z,18.40
2019-03-27T13:32:45.488Z,18.00
2019-03-27T13:35:14.029Z,17.70
2019-03-27T13:37:42.415Z,17.60
2019-03-27T13:40:12.079Z,17.40
2019-03-27T13:42:40.512Z,17.30
2019-03-27T13:45:11.405Z,17.20
2019-03-27T13:47:39.793Z,17.20
2019-03-27T13:50:12.939Z,17.30
2019-03-27T13:52:41.158Z,17.10
2019-03-27T13:55:09.676Z,16.80
2019-03-27T13:57:38.101Z,16.50
2019-03-27T14:00:10.309Z,16.40
2019-03-27T14:02:38.696Z,16.10
2019-03-27T14:05:09.409Z,15.70
2019-03-27T14:07:37.799Z,15.30
2019-03-27T14:10:08.638Z,14.80
2019-03-27T14:12:37.035Z,14.50
2019-03-27T14:15:11.509Z,14.30
2019-03-27T14:17:39.983Z,14.30
2019-03-27T14:20:10.206Z,14.20
2019-03-27T14:22:38.614Z,14.10
2019-03-27T14:25:10.209Z,14.00
2019-03-27T14:27:38.598Z,13.90
2019-03-27T14:30:10.081Z,13.90
2019-03-27T14:32:38.511Z,13.80
2019-03-27T14:35:07.438Z,13.70
2019-03-27T14:37:35.844Z,13.60
2019-03-27T14:40:07.641Z,13.50
2019-03-27T14:42:36.112Z,13.40
2019-03-27T14:45:07.508Z,13.30
2019-03-27T14:47:36.128Z,13.20
2019-03-27T14:50:07.585Z,13.10
2019-03-27T14:52:35.987Z,13.00
2019-03-27T14:55:07.550Z,12.80
2019-03-27T14:57:37.128Z,12.80
2019-03-27T15:00:10.989Z,12.70
2019-03-27T15:02:40.212Z,12.80
2019-03-27T15:05:10.848Z,12.90
2019-03-27T15:07:39.241Z,12.90
2019-03-27T15:10:09.173Z,13.00
2019-03-27T15:12:37.706Z,13.00
2019-03-27T15:15:08.829Z,12.90
2019-03-27T15:17:37.558Z,12.80
2019-03-27T15:20:08.514Z,12.80
2019-03-27T15:22:37.731Z,12.80
2019-03-27T15:25:07.369Z,12.80
2019-03-27T15:27:36.732Z,12.80
2019-03-27T15:30:08.286Z,12.70
2019-03-27T15:32:36.813Z,12.70
2019-03-27T15:35:06.928Z,12.60
2019-03-27T15:37:35.321Z,12.40
2019-03-27T15:40:04.880Z,12.40
2019-03-27T15:42:33.435Z,12.50
2019-03-27T15:45:02.401Z,12.70
2019-03-27T15:47:30.792Z,12.80
2019-03-27T15:49:59.185Z,12.90
2019-03-27T15:52:36.339Z,12.80
2019-03-27T15:54:57.705Z,12.80
2019-03-27T15:57:26.100Z,12.70
2019-03-27T15:59:54.556Z,12.70
2019-03-27T16:02:23.034Z,12.70
2019-03-27T16:04:51.424Z,12.70
2019-03-27T16:07:19.819Z,12.80
2019-03-27T16:09:48.223Z,12.90
2019-03-27T16:12:16.606Z,12.90
2019-03-27T16:14:44.996Z,12.80
2019-03-27T16:17:14.132Z,12.80
2019-03-27T16:19:43.240Z,12.80
2019-03-27T16:22:11.658Z,12.60
2019-03-27T16:24:40.045Z,12.60
2019-03-27T16:27:08.441Z,12.50
2019-03-27T16:29:36.828Z,12.50
2019-03-27T16:32:07.093Z,12.50
2019-03-27T16:34:36.453Z,12.50
2019-03-27T16:37:04.850Z,12.60
2019-03-27T16:39:33.242Z,12.50
2019-03-27T16:42:01.630Z,12.40
2019-03-27T16:44:30.023Z,12.40
2019-03-27T16:46:59.378Z,12.30
2019-03-27T16:49:27.764Z,12.30
2019-03-27T16:51:56.636Z,12.20
2019-03-27T16:54:26.363Z,12.20
2019-03-27T16:56:54.781Z,12.10
2019-03-27T16:59:23.181Z,12.10
2019-03-27T17:01:51.583Z,11.90
2019-03-27T17:04:19.984Z,11.80
2019-03-27T17:06:48.365Z,11.60
2019-03-27T17:09:16.766Z,11.50
2019-03-27T17:11:45.152Z,11.40
2019-03-27T17:14:13.565Z,11.30
2019-03-27T17:16:42.106Z,11.20
2019-03-27T17:19:11.072Z,11.10
2019-03-27T17:21:39.510Z,11.10
2019-03-27T17:24:07.901Z,11.00
2019-03-27T17:26:37.932Z,10.90
2019-03-27T17:29:06.328Z,10.90
2019-03-27T17:31:34.729Z,10.80
2019-03-27T17:34:03.120Z,10.70
2019-03-27T17:36:31.508Z,10.60
2019-03-27T17:38:59.919Z,10.60
2019-03-27T17:41:28.516Z,10.50
2019-03-27T17:43:57.476Z,10.60
2019-03-27T17:46:25.873Z,10.60
2019-03-27T17:48:54.264Z,10.60
2019-03-27T17:51:22.749Z,10.50
2019-03-27T17:53:51.225Z,10.50
2019-03-27T17:56:19.601Z,10.60
2019-03-27T17:58:48.005Z,10.60
2019-03-27T18:01:16.400Z,10.50
2019-03-27T18:03:44.780Z,10.50
2019-03-27T18:06:13.269Z,10.40
2019-03-27T18:08:41.658Z,10.20
2019-03-27T18:11:10.051Z,10.10
2019-03-27T18:13:38.525Z,9.90
2019-03-27T18:16:06.893Z,9.80
2019-03-27T18:18:35.292Z,9.80
2019-03-27T18:21:03.681Z,9.80
2019-03-27T18:23:45.153Z,9.80
2019-03-27T18:26:02.185Z,9.80
2019-03-27T18:28:30.578Z,9.80
2019-03-27T18:30:58.981Z,9.80
2019-03-27T18:33:27.369Z,9.80
2019-03-27T18:35:55.845Z,10.00
2019-03-27T18:38:24.256Z,10.00
2019-03-27T18:40:52.658Z,10.10
2019-03-27T18:43:21.065Z,10.10
2019-03-27T18:45:49.477Z,10.10
2019-03-27T18:48:17.873Z,10.00
2019-03-27T18:50:46.271Z,9.90
2019-03-27T18:53:14.678Z,9.90
2019-03-27T18:55:43.064Z,9.90
2019-03-27T18:58:11.469Z,9.90
2019-03-27T19:00:39.867Z,9.90
2019-03-27T19:03:08.321Z,9.80
2019-03-27T19:05:36.722Z,9.80
2019-03-27T19:08:05.211Z,9.70
2019-03-27T19:10:33.596Z,9.70
2019-03-27T19:13:01.977Z,9.70
2019-03-27T19:15:30.409Z,9.80
2019-03-27T19:17:58.800Z,9.80
2019-03-27T19:20:27.205Z,9.80
2019-03-27T19:22:55.633Z,9.90
2019-03-27T19:25:24.024Z,9.90
2019-03-27T19:27:52.527Z,9.80
2019-03-27T19:30:22.626Z,9.70
2019-03-27T19:32:51.077Z,9.60
2019-03-27T19:35:19.551Z,9.50
2019-03-27T19:37:47.983Z,9.40
2019-03-27T19:40:16.444Z,9.40
2019-03-27T19:42:44.828Z,9.30
2019-03-27T19:45:15.033Z,9.30
2019-03-27T19:47:43.568Z,9.30
2019-03-27T19:50:12.045Z,9.20
2019-03-27T19:52:40.432Z,9.20
2019-03-27T19:55:09.753Z,9.10
2019-03-27T19:57:38.151Z,9.10
2019-03-27T20:00:09.286Z,9.00
2019-03-27T20:02:38.817Z,9.00
2019-03-27T20:05:08.136Z,9.00
2019-03-27T20:07:36.565Z,9.10
2019-03-27T20:10:07.630Z,9.00
2019-03-27T20:12:36.810Z,9.00
2019-03-27T20:15:12.357Z,9.10
2019-03-27T20:17:39.433Z,9.10
2019-03-27T20:20:10.242Z,9.10
2019-03-27T20:22:38.742Z,9.10
2019-03-27T20:25:09.525Z,9.20
2019-03-27T20:27:37.893Z,9.10
2019-03-27T20:30:12.244Z,9.10
2019-03-27T20:32:41.535Z,9.10
2019-03-27T20:35:10.041Z,9.10
2019-03-27T20:37:38.424Z,9.00
2019-03-27T20:40:08.660Z,9.10
2019-03-27T20:42:37.121Z,9.10
2019-03-27T20:45:07.202Z,9.00
2019-03-27T20:47:35.614Z,9.00
2019-03-27T20:50:06.513Z,9.00
2019-03-27T20:52:34.957Z,8.90
2019-03-27T20:55:05.137Z,8.90
2019-03-27T20:57:33.615Z,8.90
2019-03-27T21:00:02.068Z,8.90
2019-03-27T21:02:30.460Z,8.90
2019-03-27T21:04:58.861Z,8.80
2019-03-27T21:07:27.262Z,8.80
2019-03-27T21:09:55.649Z,8.80
2019-03-27T21:12:24.039Z,8.80
2019-03-27T21:14:52.428Z,8.80
2019-03-27T21:17:20.897Z,8.70
2019-03-27T21:19:49.285Z,8.70
2019-03-27T21:22:17.680Z,8.70
2019-03-27T21:24:46.080Z,8.60
2019-03-27T21:27:16.858Z,8.70
2019-03-27T21:29:44.603Z,8.60
2019-03-27T21:32:12.997Z,8.60
2019-03-27T21:34:41.400Z,8.60
2019-03-27T21:37:09.793Z,8.50
2019-03-27T21:39:38.180Z,8.50
2019-03-27T21:42:06.588Z,8.50
2019-03-27T21:44:34.991Z,8.50
2019-03-27T21:47:03.389Z,8.40
2019-03-27T21:49:31.778Z,8.40
2019-03-27T21:52:00.172Z,8.40
2019-03-27T21:54:28.585Z,8.30
2019-03-27T21:56:56.980Z,8.30
2019-03-27T21:59:25.369Z,8.20
2019-03-27T22:01:53.767Z,8.20
2019-03-27T22:04:22.152Z,8.10
2019-03-27T22:06:50.541Z,8.10
2019-03-27T22:09:18.931Z,8.00
2019-03-27T22:11:47.321Z,8.00
2019-03-27T22:14:15.717Z,8.00
2019-03-27T22:16:44.140Z,8.00
2019-03-27T22:19:12.563Z,8.00
2019-03-27T22:21:40.928Z,8.00
2019-03-27T22:24:09.313Z,8.10
2019-03-27T22:26:37.718Z,8.10
2019-03-27T22:29:06.101Z,8.00
2019-03-27T22:31:34.496Z,8.00
2019-03-27T22:34:02.885Z,8.00
2019-03-27T22:36:31.284Z,7.90
2019-03-27T22:38:59.668Z,7.90
2019-03-27T22:41:28.064Z,7.90
2019-03-27T22:43:56.456Z,7.90
2019-03-27T22:46:24.838Z,7.90
2019-03-27T22:48:53.245Z,7.90
2019-03-27T22:51:21.627Z,7.90
2019-03-27T22:53:50.017Z,7.90
2019-03-27T22:56:18.414Z,7.90
2019-03-27T22:58:46.797Z,7.90
2019-03-27T23:01:15.529Z,7.90
2019-03-27T23:03:43.930Z,7.90
2019-03-27T23:06:12.329Z,7.90
2019-03-27T23:08:40.720Z,7.90
2019-03-27T23:11:09.124Z,7.90
2019-03-27T23:13:37.513Z,7.90
2019-03-27T23:16:05.990Z,7.90
2019-03-27T23:18:34.373Z,7.90
2019-03-27T23:21:02.846Z,7.90
2019-03-27T23:23:31.331Z,8.00
2019-03-27T23:26:03.429Z,8.00
2019-03-27T23:28:29.823Z,8.00
2019-03-27T23:30:58.212Z,8.10
2019-03-27T23:33:26.617Z,8.10
2019-03-27T23:35:55.026Z,8.00
2019-03-27T23:38:23.404Z,8.00
2019-03-27T23:40:51.793Z,8.00
2019-03-27T23:43:20.190Z,8.10
2019-03-27T23:45:48.598Z,8.00
2019-03-27T23:48:16.989Z,8.00
2019-03-27T23:50:45.405Z,8.00
2019-03-27T23:53:13.788Z,8.00
2019-03-27T23:55:42.174Z,8.00
2019-03-27T23:58:10.581Z,7.90
